sensor_id;sensor_type;location;lat;lon;timestamp;pressure;altitude;pressure_sealevel;temperature;humidity
11888;BME280;6003;42.756;23.130;2023-07-31T00:00:04;157352.94;;;19.13;100.00
11888;BME280;6003;42.756;23.130;2023-07-31T00:02:31;157358.25;;;19.15;100.00
11888;BME280;6003;42.756;23.130;2023-07-31T00:05:00;157339.66;;;19.08;100.00
11888;BME280;6003;42.756;23.130;2023-07-31T00:07:27;157341.00;;;19.08;100.00
11888;BME280;6003;42.756;23.130;2023-07-31T00:09:54;157341.00;;;19.08;100.00
11888;BME280;6003;42.756;23.130;2023-07-31T00:12:22;157342.31;;;19.09;100.00
11888;BME280;6003;42.756;23.130;2023-07-31T00:14:49;157344.97;;;19.10;100.00
11888;BME280;6003;42.756;23.130;2023-07-31T00:17:16;157343.63;;;19.09;100.00
11888;BME280;6003;42.756;23.130;2023-07-31T00:19:44;157358.25;;;19.15;100.00
11888;BME280;6003;42.756;23.130;2023-07-31T00:22:13;157344.97;;;19.10;100.00
11888;BME280;6003;42.756;23.130;2023-07-31T00:24:39;157358.25;;;19.15;100.00
11888;BME280;6003;42.756;23.130;2023-07-31T00:27:06;157360.91;;;19.16;100.00
11888;BME280;6003;42.756;23.130;2023-07-31T00:29:33;157384.91;;;19.25;100.00
11888;BME280;6003;42.756;23.130;2023-07-31T00:32:00;157390.19;;;19.27;100.00
11888;BME280;6003;42.756;23.130;2023-07-31T00:34:27;157390.19;;;19.27;100.00
11888;BME280;6003;42.756;23.130;2023-07-31T00:36:53;157384.91;;;19.25;100.00
11888;BME280;6003;42.756;23.130;2023-07-31T00:39:23;157386.22;;;19.26;100.00
11888;BME280;6003;42.756;23.130;2023-07-31T00:41:50;157382.19;;;19.24;100.00
11888;BME280;6003;42.756;23.130;2023-07-31T00:44:16;157386.22;;;19.26;100.00
11888;BME280;6003;42.756;23.130;2023-07-31T00:46:44;157379.56;;;19.23;100.00
11888;BME280;6003;42.756;23.130;2023-07-31T00:49:11;157368.94;;;19.19;100.00
11888;BME280;6003;42.756;23.130;2023-07-31T00:51:38;157366.25;;;19.18;100.00
11888;BME280;6003;42.756;23.130;2023-07-31T00:54:06;157343.63;;;19.09;100.00
11888;BME280;6003;42.756;23.130;2023-07-31T00:56:34;157342.31;;;19.09;100.00
11888;BME280;6003;42.756;23.130;2023-07-31T00:59:08;157315.69;;;18.99;100.00
11888;BME280;6003;42.756;23.130;2023-07-31T01:01:34;157299.72;;;18.92;100.00
11888;BME280;6003;42.756;23.130;2023-07-31T01:04:01;157294.44;;;18.90;100.00
11888;BME280;6003;42.756;23.130;2023-07-31T01:06:33;157281.13;;;18.85;100.00
11888;BME280;6003;42.756;23.130;2023-07-31T01:09:03;157271.84;;;18.82;100.00
11888;BME280;6003;42.756;23.130;2023-07-31T01:11:33;157246.50;;;18.72;100.00
11888;BME280;6003;42.756;23.130;2023-07-31T01:14:02;157238.50;;;18.69;100.00
11888;BME280;6003;42.756;23.130;2023-07-31T01:16:29;157219.91;;;18.62;100.00
11888;BME280;6003;42.756;23.130;2023-07-31T01:18:58;157214.59;;;18.60;100.00
11888;BME280;6003;42.756;23.130;2023-07-31T01:24:36;157197.31;;;18.53;100.00
11888;BME280;6003;42.756;23.130;2023-07-31T01:27:14;157207.94;;;18.57;100.00
11888;BME280;6003;42.756;23.130;2023-07-31T01:29:46;157217.22;;;18.61;100.00
11888;BME280;6003;42.756;23.130;2023-07-31T01:32:14;157227.91;;;18.65;100.00
11888;BME280;6003;42.756;23.130;2023-07-31T01:34:44;157243.84;;;18.71;100.00
11888;BME280;6003;42.756;23.130;2023-07-31T01:37:12;157262.50;;;18.78;100.00
11888;BME280;6003;42.756;23.130;2023-07-31T01:39:39;157257.22;;;18.76;100.00
11888;BME280;6003;42.756;23.130;2023-07-31T01:42:06;157255.84;;;18.76;100.00
11888;BME280;6003;42.756;23.130;2023-07-31T01:44:35;157273.16;;;18.82;100.00
11888;BME280;6003;42.756;23.130;2023-07-31T01:47:01;157273.16;;;18.82;100.00
11888;BME280;6003;42.756;23.130;2023-07-31T01:49:28;157281.13;;;18.85;100.00
11888;BME280;6003;42.756;23.130;2023-07-31T01:51:55;157289.09;;;18.88;100.00
11888;BME280;6003;42.756;23.130;2023-07-31T01:54:22;157286.47;;;18.87;100.00
11888;BME280;6003;42.756;23.130;2023-07-31T01:56:49;157287.78;;;18.88;100.00
11888;BME280;6003;42.756;23.130;2023-07-31T01:59:15;157298.41;;;18.92;100.00
11888;BME280;6003;42.756;23.130;2023-07-31T02:01:44;157299.72;;;18.92;100.00
11888;BME280;6003;42.756;23.130;2023-07-31T02:04:10;157313.03;;;18.98;100.00
11888;BME280;6003;42.756;23.130;2023-07-31T02:06:38;157319.69;;;19.00;100.00
11888;BME280;6003;42.756;23.130;2023-07-31T02:09:05;157326.34;;;19.03;100.00
11888;BME280;6003;42.756;23.130;2023-07-31T02:11:32;157307.72;;;18.96;100.00
11888;BME280;6003;42.756;23.130;2023-07-31T02:13:58;157306.38;;;18.95;100.00
11888;BME280;6003;42.756;23.130;2023-07-31T02:16:25;157306.38;;;18.95;100.00
11888;BME280;6003;42.756;23.130;2023-07-31T02:18:53;157291.75;;;18.89;100.00
11888;BME280;6003;42.756;23.130;2023-07-31T02:21:20;157299.72;;;18.92;100.00
11888;BME280;6003;42.756;23.130;2023-07-31T02:23:47;157301.06;;;18.93;100.00
11888;BME280;6003;42.756;23.130;2023-07-31T02:26:14;157286.47;;;18.87;100.00
11888;BME280;6003;42.756;23.130;2023-07-31T02:28:41;157285.09;;;18.87;100.00
11888;BME280;6003;42.756;23.130;2023-07-31T02:31:08;157286.47;;;18.87;100.00
11888;BME280;6003;42.756;23.130;2023-07-31T02:33:35;157289.09;;;18.88;100.00
11888;BME280;6003;42.756;23.130;2023-07-31T02:36:04;157294.44;;;18.90;100.00
11888;BME280;6003;42.756;23.130;2023-07-31T02:38:31;157311.72;;;18.97;100.00
11888;BME280;6003;42.756;23.130;2023-07-31T02:40:57;157315.69;;;18.99;100.00
11888;BME280;6003;42.756;23.130;2023-07-31T02:43:24;157318.38;;;19.00;100.00
11888;BME280;6003;42.756;23.130;2023-07-31T02:45:51;157313.03;;;18.98;100.00
11888;BME280;6003;42.756;23.130;2023-07-31T02:48:18;157319.69;;;19.00;100.00
11888;BME280;6003;42.756;23.130;2023-07-31T02:50:45;157314.38;;;18.98;100.00
11888;BME280;6003;42.756;23.130;2023-07-31T02:53:14;157313.03;;;18.98;100.00
11888;BME280;6003;42.756;23.130;2023-07-31T02:55:41;157305.06;;;18.94;100.00
11888;BME280;6003;42.756;23.130;2023-07-31T02:58:07;157307.72;;;18.96;100.00
11888;BME280;6003;42.756;23.130;2023-07-31T03:00:34;157295.78;;;18.91;100.00
11888;BME280;6003;42.756;23.130;2023-07-31T03:03:01;157303.75;;;18.94;100.00
11888;BME280;6003;42.756;23.130;2023-07-31T03:05:28;157309.09;;;18.96;100.00
11888;BME280;6003;42.756;23.130;2023-07-31T03:07:55;157313.03;;;18.98;100.00
11888;BME280;6003;42.756;23.130;2023-07-31T03:10:23;157310.41;;;18.97;100.00
11888;BME280;6003;42.756;23.130;2023-07-31T03:12:50;157307.72;;;18.96;100.00
11888;BME280;6003;42.756;23.130;2023-07-31T03:15:16;157309.09;;;18.96;100.00
11888;BME280;6003;42.756;23.130;2023-07-31T03:17:43;157289.09;;;18.88;100.00
11888;BME280;6003;42.756;23.130;2023-07-31T03:20:11;157299.72;;;18.92;100.00
11888;BME280;6003;42.756;23.130;2023-07-31T03:22:38;157290.44;;;18.89;100.00
11888;BME280;6003;42.756;23.130;2023-07-31T03:25:05;157293.06;;;18.90;100.00
11888;BME280;6003;42.756;23.130;2023-07-31T03:27:34;157289.09;;;18.88;100.00
11888;BME280;6003;42.756;23.130;2023-07-31T03:30:02;157270.47;;;18.81;100.00
11888;BME280;6003;42.756;23.130;2023-07-31T03:32:28;157281.13;;;18.85;100.00
11888;BME280;6003;42.756;23.130;2023-07-31T03:34:55;157286.47;;;18.87;100.00
11888;BME280;6003;42.756;23.130;2023-07-31T03:37:22;157281.13;;;18.85;100.00
11888;BME280;6003;42.756;23.130;2023-07-31T03:39:49;157299.72;;;18.92;100.00
11888;BME280;6003;42.756;23.130;2023-07-31T03:42:16;157309.09;;;18.96;100.00
11888;BME280;6003;42.756;23.130;2023-07-31T03:44:44;157310.41;;;18.97;100.00
11888;BME280;6003;42.756;23.130;2023-07-31T03:47:11;157307.72;;;18.96;100.00
11888;BME280;6003;42.756;23.130;2023-07-31T03:49:38;157318.38;;;19.00;100.00
11888;BME280;6003;42.756;23.130;2023-07-31T03:52:05;157315.69;;;18.99;100.00
11888;BME280;6003;42.756;23.130;2023-07-31T03:54:32;157336.97;;;19.07;100.00
11888;BME280;6003;42.756;23.130;2023-07-31T03:56:59;157352.94;;;19.13;100.00
11888;BME280;6003;42.756;23.130;2023-07-31T03:59:25;157374.22;;;19.21;100.00
11888;BME280;6003;42.756;23.130;2023-07-31T04:01:54;157367.56;;;19.19;100.00
11888;BME280;6003;42.756;23.130;2023-07-31T04:04:20;157359.59;;;19.15;100.00
11888;BME280;6003;42.756;23.130;2023-07-31T04:06:47;157398.16;;;19.30;100.00
11888;BME280;6003;42.756;23.130;2023-07-31T04:09:14;157410.16;;;19.35;100.00
11888;BME280;6003;42.756;23.130;2023-07-31T04:11:41;157412.78;;;19.36;100.00
11888;BME280;6003;42.756;23.130;2023-07-31T04:14:08;157427.44;;;19.42;100.00
11888;BME280;6003;42.756;23.130;2023-07-31T04:16:35;157442.06;;;19.47;100.00
11888;BME280;6003;42.756;23.130;2023-07-31T04:19:06;157464.69;;;19.56;100.00
11888;BME280;6003;42.756;23.130;2023-07-31T04:21:32;157467.38;;;19.57;100.00
11888;BME280;6003;42.756;23.130;2023-07-31T04:23:59;157487.31;;;19.65;100.00
11888;BME280;6003;42.756;23.130;2023-07-31T04:26:26;157487.31;;;19.65;100.00
11888;BME280;6003;42.756;23.130;2023-07-31T04:28:53;157492.69;;;19.67;100.00
11888;BME280;6003;42.756;23.130;2023-07-31T04:31:19;157502.00;;;19.70;100.00
11888;BME280;6003;42.756;23.130;2023-07-31T04:33:46;157514.00;;;19.75;100.00
11888;BME280;6003;42.756;23.130;2023-07-31T04:36:14;157565.91;;;19.95;100.00
11888;BME280;6003;42.756;23.130;2023-07-31T04:38:41;157729.72;;;20.58;100.00
11888;BME280;6003;42.756;23.130;2023-07-31T04:41:08;157909.53;;;21.27;100.00
11888;BME280;6003;42.756;23.130;2023-07-31T04:43:35;158021.50;;;21.70;97.13
11888;BME280;6003;42.756;23.130;2023-07-31T04:46:04;158112.13;;;22.04;93.85
11888;BME280;6003;42.756;23.130;2023-07-31T04:48:31;158152.13;;;22.20;91.69
11888;BME280;6003;42.756;23.130;2023-07-31T04:50:58;158349.53;;;22.95;89.99
11888;BME280;6003;42.756;23.130;2023-07-31T04:53:26;158413.56;;;23.20;86.71
11888;BME280;6003;42.756;23.130;2023-07-31T04:55:53;158573.69;;;23.81;84.70
11888;BME280;6003;42.756;23.130;2023-07-31T04:58:20;158665.78;;;24.17;82.20
11888;BME280;6003;42.756;23.130;2023-07-31T05:00:46;158832.75;;;24.81;80.87
11888;BME280;6003;42.756;23.130;2023-07-31T05:03:13;158859.44;;;24.91;79.52
11888;BME280;6003;42.756;23.130;2023-07-31T05:05:40;158962.34;;;25.30;78.29
11888;BME280;6003;42.756;23.130;2023-07-31T05:08:07;158864.78;;;24.93;77.10
11888;BME280;6003;42.756;23.130;2023-07-31T05:10:35;158822.03;;;24.76;78.59
11888;BME280;6003;42.756;23.130;2023-07-31T05:13:02;158880.81;;;24.99;77.92
11888;BME280;6003;42.756;23.130;2023-07-31T05:15:29;158942.28;;;25.23;76.66
11888;BME280;6003;42.756;23.130;2023-07-31T05:17:56;159007.75;;;25.48;76.08
11888;BME280;6003;42.756;23.130;2023-07-31T05:20:22;159109.31;;;25.86;73.49
11888;BME280;6003;42.756;23.130;2023-07-31T05:22:50;159126.72;;;25.93;72.02
11888;BME280;6003;42.756;23.130;2023-07-31T05:25:17;159030.47;;;25.56;72.47
11888;BME280;6003;42.756;23.130;2023-07-31T05:27:46;158867.44;;;24.94;75.66
11888;BME280;6003;42.756;23.130;2023-07-31T05:30:12;158731.19;;;24.42;75.84
11888;BME280;6003;42.756;23.130;2023-07-31T05:32:39;158645.78;;;24.09;77.17
11888;BME280;6003;42.756;23.130;2023-07-31T05:35:06;158434.91;;;23.28;79.43
11888;BME280;6003;42.756;23.130;2023-07-31T05:37:34;158408.22;;;23.18;81.62
11888;BME280;6003;42.756;23.130;2023-07-31T05:40:01;158312.13;;;22.81;82.23
11888;BME280;6003;42.756;23.130;2023-07-31T05:42:28;158296.13;;;22.75;82.92
11888;BME280;6003;42.756;23.130;2023-07-31T05:44:56;158312.13;;;22.81;82.04
11888;BME280;6003;42.756;23.130;2023-07-31T05:47:23;158330.81;;;22.88;82.31
11888;BME280;6003;42.756;23.130;2023-07-31T05:49:50;158280.13;;;22.69;81.94
11888;BME280;6003;42.756;23.130;2023-07-31T05:52:18;158228.13;;;22.49;82.79
11888;BME280;6003;42.756;23.130;2023-07-31T05:54:44;158184.13;;;22.32;82.01
11888;BME280;6003;42.756;23.130;2023-07-31T05:57:12;158184.13;;;22.32;83.21
11888;BME280;6003;42.756;23.130;2023-07-31T05:59:39;158501.63;;;23.54;80.24
11888;BME280;6003;42.756;23.130;2023-07-31T06:02:07;158709.84;;;24.33;76.40
11888;BME280;6003;42.756;23.130;2023-07-31T06:04:34;158806.03;;;24.70;76.54
11888;BME280;6003;42.756;23.130;2023-07-31T06:07:01;158942.28;;;25.23;73.36
11888;BME280;6003;42.756;23.130;2023-07-31T06:09:28;159105.34;;;25.85;72.01
11888;BME280;6003;42.756;23.130;2023-07-31T06:11:55;159225.63;;;26.31;70.14
11888;BME280;6003;42.756;23.130;2023-07-31T06:14:22;158989.03;;;25.40;70.12
11888;BME280;6003;42.756;23.130;2023-07-31T06:16:49;158867.44;;;24.94;71.15
11888;BME280;6003;42.756;23.130;2023-07-31T06:19:17;158631.09;;;24.03;72.32
11888;BME280;6003;42.756;23.130;2023-07-31T06:21:45;158438.91;;;23.30;75.42
11888;BME280;6003;42.756;23.130;2023-07-31T06:24:12;158332.16;;;22.89;77.40
11888;BME280;6003;42.756;23.130;2023-07-31T06:26:44;158290.81;;;22.73;79.01
11888;BME280;6003;42.756;23.130;2023-07-31T06:29:11;158276.16;;;22.67;79.00
11888;BME280;6003;42.756;23.130;2023-07-31T06:31:37;158256.13;;;22.60;79.65
11888;BME280;6003;42.756;23.130;2023-07-31T06:34:04;158228.13;;;22.49;79.33
11888;BME280;6003;42.756;23.130;2023-07-31T06:36:32;158158.81;;;22.22;79.21
11888;BME280;6003;42.756;23.130;2023-07-31T06:38:59;158122.75;;;22.08;81.14
11888;BME280;6003;42.756;23.130;2023-07-31T06:41:26;158089.47;;;21.96;79.86
11888;BME280;6003;42.756;23.130;2023-07-31T06:43:53;158144.09;;;22.17;80.49
11888;BME280;6003;42.756;23.130;2023-07-31T06:46:19;158104.13;;;22.01;80.04
11888;BME280;6003;42.756;23.130;2023-07-31T06:48:46;158082.78;;;21.93;81.59
11888;BME280;6003;42.756;23.130;2023-07-31T06:51:13;158098.78;;;21.99;81.36
11888;BME280;6003;42.756;23.130;2023-07-31T06:53:41;158057.44;;;21.83;81.44
11888;BME280;6003;42.756;23.130;2023-07-31T06:56:10;158062.78;;;21.85;80.47
11888;BME280;6003;42.756;23.130;2023-07-31T06:58:37;158272.13;;;22.66;77.26
11888;BME280;6003;42.756;23.130;2023-07-31T07:01:04;158480.28;;;23.46;74.55
11888;BME280;6003;42.756;23.130;2023-07-31T07:03:31;158629.78;;;24.03;72.66
11888;BME280;6003;42.756;23.130;2023-07-31T07:05:59;158725.84;;;24.40;70.58
11888;BME280;6003;42.756;23.130;2023-07-31T07:08:26;158832.75;;;24.81;71.25
11888;BME280;6003;42.756;23.130;2023-07-31T07:10:54;158811.38;;;24.72;68.84
11888;BME280;6003;42.756;23.130;2023-07-31T07:13:21;158899.53;;;25.06;69.75
11888;BME280;6003;42.756;23.130;2023-07-31T07:15:48;159014.44;;;25.50;67.80
11888;BME280;6003;42.756;23.130;2023-07-31T07:18:15;159018.41;;;25.52;66.98
11888;BME280;6003;42.756;23.130;2023-07-31T07:20:46;159025.09;;;25.54;68.46
11888;BME280;6003;42.756;23.130;2023-07-31T07:23:13;159061.19;;;25.68;67.34
11888;BME280;6003;42.756;23.130;2023-07-31T07:25:40;159162.81;;;26.07;67.92
11888;BME280;6003;42.756;23.130;2023-07-31T07:28:08;159022.44;;;25.53;66.78
11888;BME280;6003;42.756;23.130;2023-07-31T07:30:35;158983.72;;;25.38;65.86
11888;BME280;6003;42.756;23.130;2023-07-31T07:33:02;158989.03;;;25.40;66.94
11888;BME280;6003;42.756;23.130;2023-07-31T07:35:29;159041.13;;;25.60;66.86
11888;BME280;6003;42.756;23.130;2023-07-31T07:37:56;159033.13;;;25.57;65.56
11888;BME280;6003;42.756;23.130;2023-07-31T07:40:23;159022.44;;;25.53;66.19
11888;BME280;6003;42.756;23.130;2023-07-31T07:42:50;159121.38;;;25.91;65.66
11888;BME280;6003;42.756;23.130;2023-07-31T07:45:18;159081.25;;;25.76;66.32
11888;BME280;6003;42.756;23.130;2023-07-31T07:47:45;159122.69;;;25.92;64.48
11888;BME280;6003;42.756;23.130;2023-07-31T07:50:12;159170.81;;;26.10;62.56
11888;BME280;6003;42.756;23.130;2023-07-31T07:52:39;159046.50;;;25.62;63.98
11888;BME280;6003;42.756;23.130;2023-07-31T07:55:06;159058.53;;;25.67;64.85
11888;BME280;6003;42.756;23.130;2023-07-31T07:57:33;159041.13;;;25.60;63.52
11888;BME280;6003;42.756;23.130;2023-07-31T08:00:00;159087.94;;;25.78;64.25
11888;BME280;6003;42.756;23.130;2023-07-31T08:02:28;159148.13;;;26.01;63.19
11888;BME280;6003;42.756;23.130;2023-07-31T08:04:55;159120.03;;;25.91;62.68
11888;BME280;6003;42.756;23.130;2023-07-31T08:07:22;159062.50;;;25.69;62.58
11888;BME280;6003;42.756;23.130;2023-07-31T08:09:49;159042.50;;;25.61;65.42
11888;BME280;6003;42.756;23.130;2023-07-31T08:12:16;159034.50;;;25.58;63.24
11888;BME280;6003;42.756;23.130;2023-07-31T08:14:43;159150.78;;;26.02;64.10
11888;BME280;6003;42.756;23.130;2023-07-31T08:17:10;159173.47;;;26.11;61.66
11888;BME280;6003;42.756;23.130;2023-07-31T08:19:38;159105.34;;;25.85;61.07
11888;BME280;6003;42.756;23.130;2023-07-31T08:22:05;159150.78;;;26.02;61.49
11888;BME280;6003;42.756;23.130;2023-07-31T08:24:32;159124.03;;;25.92;59.61
11888;BME280;6003;42.756;23.130;2023-07-31T08:26:59;159071.91;;;25.72;60.19
11888;BME280;6003;42.756;23.130;2023-07-31T08:29:26;159156.13;;;26.04;62.10
11888;BME280;6003;42.756;23.130;2023-07-31T08:31:52;159260.38;;;26.44;60.13
11888;BME280;6003;42.756;23.130;2023-07-31T08:34:19;159311.19;;;26.64;60.62
11888;BME280;6003;42.756;23.130;2023-07-31T08:36:47;159370.03;;;26.86;59.98
11888;BME280;6003;42.756;23.130;2023-07-31T08:39:15;159388.78;;;26.93;59.98
11888;BME280;6003;42.756;23.130;2023-07-31T08:41:42;159368.69;;;26.86;59.42
11888;BME280;6003;42.756;23.130;2023-07-31T08:44:10;159423.50;;;27.07;60.78
11888;BME280;6003;42.756;23.130;2023-07-31T08:46:38;159457.03;;;27.19;59.08
11888;BME280;6003;42.756;23.130;2023-07-31T08:49:07;159447.63;;;27.16;60.79
11888;BME280;6003;42.756;23.130;2023-07-31T08:51:34;159415.50;;;27.04;61.42
11888;BME280;6003;42.756;23.130;2023-07-31T08:54:03;159402.09;;;26.98;58.77
11888;BME280;6003;42.756;23.130;2023-07-31T08:56:31;159313.91;;;26.65;59.06
11888;BME280;6003;42.756;23.130;2023-07-31T08:58:59;159324.56;;;26.69;62.66
11888;BME280;6003;42.756;23.130;2023-07-31T09:01:29;159442.25;;;27.14;62.62
11888;BME280;6003;42.756;23.130;2023-07-31T09:03:57;159443.59;;;27.14;59.82
11888;BME280;6003;42.756;23.130;2023-07-31T09:06:26;159435.56;;;27.11;59.01
11888;BME280;6003;42.756;23.130;2023-07-31T09:08:55;159410.13;;;27.01;58.75
11888;BME280;6003;42.756;23.130;2023-07-31T09:11:23;159415.50;;;27.04;58.95
11888;BME280;6003;42.756;23.130;2023-07-31T09:13:52;159483.75;;;27.30;58.18
11888;BME280;6003;42.756;23.130;2023-07-31T09:16:27;159578.72;;;27.66;58.59
11888;BME280;6003;42.756;23.130;2023-07-31T09:18:56;159577.41;;;27.65;54.99
11888;BME280;6003;42.756;23.130;2023-07-31T09:21:24;159667.09;;;28.00;57.06
11888;BME280;6003;42.756;23.130;2023-07-31T09:23:51;159699.19;;;28.12;54.88
11888;BME280;6003;42.756;23.130;2023-07-31T09:26:30;159640.31;;;27.89;54.85
11888;BME280;6003;42.756;23.130;2023-07-31T09:28:57;159657.69;;;27.96;56.50
11888;BME280;6003;42.756;23.130;2023-07-31T09:31:39;159808.94;;;28.54;55.98
11888;BME280;6003;42.756;23.130;2023-07-31T09:34:07;159774.13;;;28.41;54.17
11888;BME280;6003;42.756;23.130;2023-07-31T09:36:39;159652.38;;;27.94;55.06
11888;BME280;6003;42.756;23.130;2023-07-31T09:39:08;159743.34;;;28.29;54.64
11888;BME280;6003;42.756;23.130;2023-07-31T09:41:38;159863.84;;;28.75;56.30
11888;BME280;6003;42.756;23.130;2023-07-31T09:44:06;159877.25;;;28.80;51.54
11888;BME280;6003;42.756;23.130;2023-07-31T09:46:35;159905.34;;;28.91;54.92
11888;BME280;6003;42.756;23.130;2023-07-31T09:49:09;159910.69;;;28.93;52.31
11888;BME280;6003;42.756;23.130;2023-07-31T09:51:36;159902.66;;;28.90;53.18
11888;BME280;6003;42.756;23.130;2023-07-31T09:54:09;159838.41;;;28.65;52.49
11888;BME280;6003;42.756;23.130;2023-07-31T09:56:41;159879.91;;;28.81;52.16
11888;BME280;6003;42.756;23.130;2023-07-31T09:59:11;159850.47;;;28.70;52.18
11888;BME280;6003;42.756;23.130;2023-07-31T10:01:38;159733.94;;;28.25;51.59
11888;BME280;6003;42.756;23.130;2023-07-31T10:04:07;159774.13;;;28.41;50.97
11888;BME280;6003;42.756;23.130;2023-07-31T10:06:35;159731.28;;;28.24;52.68
11888;BME280;6003;42.756;23.130;2023-07-31T10:09:03;159752.72;;;28.32;53.54
11888;BME280;6003;42.756;23.130;2023-07-31T10:11:34;159760.72;;;28.35;52.59
11888;BME280;6003;42.756;23.130;2023-07-31T10:14:04;159811.66;;;28.55;51.67
11888;BME280;6003;42.756;23.130;2023-07-31T10:16:32;159854.44;;;28.71;53.94
11888;BME280;6003;42.756;23.130;2023-07-31T10:18:59;159862.53;;;28.74;50.62
11888;BME280;6003;42.756;23.130;2023-07-31T10:21:27;159938.88;;;29.04;51.55
11888;BME280;6003;42.756;23.130;2023-07-31T10:23:55;160001.78;;;29.28;50.10
11888;BME280;6003;42.756;23.130;2023-07-31T10:26:23;160028.59;;;29.38;46.61
11888;BME280;6003;42.756;23.130;2023-07-31T10:28:52;159961.63;;;29.12;48.89
11888;BME280;6003;42.756;23.130;2023-07-31T10:31:21;160015.19;;;29.33;48.02
11888;BME280;6003;42.756;23.130;2023-07-31T10:33:48;160094.22;;;29.63;49.03
11888;BME280;6003;42.756;23.130;2023-07-31T10:36:17;160100.94;;;29.65;45.69
11888;BME280;6003;42.756;23.130;2023-07-31T10:38:44;160015.19;;;29.33;46.65
11888;BME280;6003;42.756;23.130;2023-07-31T10:41:11;159965.63;;;29.14;47.77
11888;BME280;6003;42.756;23.130;2023-07-31T10:43:38;159902.66;;;28.90;46.79
11888;BME280;6003;42.756;23.130;2023-07-31T10:46:09;159846.41;;;28.68;47.49
11888;BME280;6003;42.756;23.130;2023-07-31T10:48:40;159934.78;;;29.02;49.01
11888;BME280;6003;42.756;23.130;2023-07-31T10:51:09;159979.03;;;29.19;48.54
11888;BME280;6003;42.756;23.130;2023-07-31T10:53:36;159997.75;;;29.26;46.95
11888;BME280;6003;42.756;23.130;2023-07-31T10:56:04;159956.25;;;29.10;45.55
11888;BME280;6003;42.756;23.130;2023-07-31T10:58:32;159997.75;;;29.26;46.38
11888;BME280;6003;42.756;23.130;2023-07-31T11:01:01;159983.06;;;29.20;46.50
11888;BME280;6003;42.756;23.130;2023-07-31T11:03:43;159971.00;;;29.16;49.00
11888;BME280;6003;42.756;23.130;2023-07-31T11:06:10;159893.31;;;28.86;49.64
11888;BME280;6003;42.756;23.130;2023-07-31T11:08:42;159849.13;;;28.69;49.94
11888;BME280;6003;42.756;23.130;2023-07-31T11:11:11;159808.94;;;28.54;49.15
11888;BME280;6003;42.756;23.130;2023-07-31T11:13:44;159841.09;;;28.66;48.42
11888;BME280;6003;42.756;23.130;2023-07-31T11:16:11;159834.41;;;28.64;47.84
11888;BME280;6003;42.756;23.130;2023-07-31T11:18:40;159902.66;;;28.90;48.61
11888;BME280;6003;42.756;23.130;2023-07-31T11:21:11;159969.66;;;29.15;48.46
11888;BME280;6003;42.756;23.130;2023-07-31T11:23:38;160009.81;;;29.31;46.79
11888;BME280;6003;42.756;23.130;2023-07-31T11:26:05;160033.91;;;29.40;45.46
11888;BME280;6003;42.756;23.130;2023-07-31T11:28:33;159857.16;;;28.72;47.69
11888;BME280;6003;42.756;23.130;2023-07-31T11:31:01;159908.03;;;28.92;49.04
11888;BME280;6003;42.756;23.130;2023-07-31T11:33:28;159783.53;;;28.44;48.43
11888;BME280;6003;42.756;23.130;2023-07-31T11:35:55;159827.72;;;28.61;51.85
11888;BME280;6003;42.756;23.130;2023-07-31T11:38:24;159878.59;;;28.81;51.51
11888;BME280;6003;42.756;23.130;2023-07-31T11:40:51;159904.00;;;28.90;50.79
11888;BME280;6003;42.756;23.130;2023-07-31T11:43:18;159902.66;;;28.90;51.92
11888;BME280;6003;42.756;23.130;2023-07-31T11:45:47;159886.63;;;28.84;52.42
11888;BME280;6003;42.756;23.130;2023-07-31T11:48:22;159798.25;;;28.50;51.33
11888;BME280;6003;42.756;23.130;2023-07-31T11:50:50;159825.06;;;28.60;51.34
11888;BME280;6003;42.756;23.130;2023-07-31T11:53:20;159857.16;;;28.72;49.21
11888;BME280;6003;42.756;23.130;2023-07-31T11:55:49;159863.84;;;28.75;50.96
11888;BME280;6003;42.756;23.130;2023-07-31T11:58:17;159806.28;;;28.53;50.72
11888;BME280;6003;42.756;23.130;2023-07-31T12:00:44;159839.78;;;28.66;49.95
11888;BME280;6003;42.756;23.130;2023-07-31T12:03:12;159806.28;;;28.53;48.27
11888;BME280;6003;42.756;23.130;2023-07-31T12:05:39;159835.72;;;28.64;50.10
11888;BME280;6003;42.756;23.130;2023-07-31T12:08:10;159838.41;;;28.65;48.78
11888;BME280;6003;42.756;23.130;2023-07-31T12:10:38;159779.53;;;28.43;46.92
11888;BME280;6003;42.756;23.130;2023-07-31T12:13:09;159829.03;;;28.62;46.88
11888;BME280;6003;42.756;23.130;2023-07-31T12:15:40;159822.34;;;28.59;47.72
11888;BME280;6003;42.756;23.130;2023-07-31T12:18:09;159806.28;;;28.53;48.17
11888;BME280;6003;42.756;23.130;2023-07-31T12:20:41;159831.69;;;28.63;48.38
11888;BME280;6003;42.756;23.130;2023-07-31T12:23:13;159808.94;;;28.54;48.55
11888;BME280;6003;42.756;23.130;2023-07-31T12:25:40;159826.38;;;28.61;47.17
11888;BME280;6003;42.756;23.130;2023-07-31T12:28:09;159883.91;;;28.83;47.73
11888;BME280;6003;42.756;23.130;2023-07-31T12:30:38;159846.41;;;28.68;47.36
11888;BME280;6003;42.756;23.130;2023-07-31T12:33:07;159830.38;;;28.62;47.87
11888;BME280;6003;42.756;23.130;2023-07-31T12:35:37;159787.56;;;28.46;47.40
11888;BME280;6003;42.756;23.130;2023-07-31T12:38:04;159708.53;;;28.16;48.68
11888;BME280;6003;42.756;23.130;2023-07-31T12:40:31;159653.69;;;27.95;47.54
11888;BME280;6003;42.756;23.130;2023-07-31T12:43:01;159649.66;;;27.93;47.44
11888;BME280;6003;42.756;23.130;2023-07-31T12:45:30;159613.53;;;27.79;48.81
11888;BME280;6003;42.756;23.130;2023-07-31T12:47:57;159695.16;;;28.10;48.61
11888;BME280;6003;42.756;23.130;2023-07-31T12:50:24;159798.25;;;28.50;47.63